VLG57EM LIRQ-LEBL
Flight info
| Callsign | VLG57EM |
|---|---|
| Flight time | N/A |
| Altitude | 34000 |
| Route | BIBNO DCT BEROK DCT ENOBA/N0439F350 DCT GEKBA DCT VAMTU DCT KOLON DCT GANGU DCT PADKO DCT DIVKO DCT NILDU N975 BISBA |
| Aircraft | A319/M-SDE3FGHIRWY/LB1 |
Departure
| Time | 2026-05-01 14:20 |
|---|---|
| Airport | Florence Airport, Peretola (LIRQ) |
Arrival
| Time | N/A |
|---|---|
| Airport | Josep Tarradellas Barcelona-El Prat Airport (LEBL) |
| Time | Latitude | Longitude | Altitude | Speed | Heading |
|---|---|---|---|---|---|
| 2026-05-01 13:36 | 43.80291 | 11.20034 | 126 ft | 0 kts | 159° |
| 2026-05-01 14:06 | 43.80299 | 11.20030 | 123 ft | 2 kts | 159° |
| 2026-05-01 14:06 | 43.80315 | 11.20022 | 125 ft | 2 kts | 158° |
| 2026-05-01 14:07 | 43.80330 | 11.20013 | 125 ft | 2 kts | 159° |
| 2026-05-01 14:07 | 43.80343 | 11.20000 | 123 ft | 2 kts | 116° |
| 2026-05-01 14:07 | 43.80349 | 11.19979 | 126 ft | 2 kts | 116° |
| 2026-05-01 14:08 | 43.80370 | 11.19947 | 125 ft | 1 kts | 136° |
| 2026-05-01 14:08 | 43.80372 | 11.19945 | 131 ft | 0 kts | 136° |
| 2026-05-01 14:10 | 43.80369 | 11.19949 | 131 ft | 3 kts | 136° |
| 2026-05-01 14:10 | 43.80356 | 11.19997 | 129 ft | 8 kts | 75° |
| 2026-05-01 14:10 | 43.80396 | 11.20035 | 130 ft | 7 kts | 6° |
| 2026-05-01 14:10 | 43.80449 | 11.20045 | 131 ft | 8 kts | 8° |
| 2026-05-01 14:11 | 43.80491 | 11.20038 | 133 ft | 6 kts | 315° |
| 2026-05-01 14:11 | 43.80614 | 11.20012 | 132 ft | 15 kts | 11° |
| 2026-05-01 14:11 | 43.80711 | 11.20060 | 132 ft | 15 kts | 39° |
| 2026-05-01 14:12 | 43.80782 | 11.20164 | 132 ft | 15 kts | 49° |
| 2026-05-01 14:12 | 43.80859 | 11.20288 | 130 ft | 19 kts | 49° |
| 2026-05-01 14:12 | 43.80956 | 11.20434 | 127 ft | 21 kts | 48° |
| 2026-05-01 14:12 | 43.81057 | 11.20591 | 126 ft | 21 kts | 49° |
| 2026-05-01 14:13 | 43.81153 | 11.20738 | 127 ft | 20 kts | 48° |
| 2026-05-01 14:13 | 43.81215 | 11.20835 | 128 ft | 20 kts | 49° |
| 2026-05-01 14:13 | 43.81264 | 11.21044 | 136 ft | 17 kts | 95° |
| 2026-05-01 14:13 | 43.81257 | 11.21187 | 142 ft | 13 kts | 89° |
| 2026-05-01 14:14 | 43.81297 | 11.21279 | 144 ft | 11 kts | 48° |
| 2026-05-01 14:14 | 43.81345 | 11.21354 | 146 ft | 10 kts | 47° |
| 2026-05-01 14:14 | 43.81387 | 11.21383 | 144 ft | 0 kts | 7° |
| 2026-05-01 14:19 | 43.81404 | 11.21380 | 143 ft | 6 kts | 348° |
| 2026-05-01 14:19 | 43.81467 | 11.21352 | 137 ft | 13 kts | 341° |
| 2026-05-01 14:19 | 43.81529 | 11.21327 | 138 ft | 3 kts | 305° |
| 2026-05-01 14:19 | 43.81520 | 11.21307 | 135 ft | 0 kts | 226° |
| 2026-05-01 14:20 | 43.81493 | 11.21266 | 133 ft | 35 kts | 227° |
| 2026-05-01 14:20 | 43.80376 | 11.19534 | 405 ft | 169 kts | 228° |
| 2026-05-01 14:20 | 43.79727 | 11.18199 | 1168 ft | 170 kts | 261° |
| 2026-05-01 14:21 | 43.79853 | 11.16655 | 1952 ft | 162 kts | 302° |
| 2026-05-01 14:21 | 43.80358 | 11.15278 | 2829 ft | 164 kts | 295° |
| 2026-05-01 14:21 | 43.80557 | 11.13627 | 3404 ft | 182 kts | 280° |
| 2026-05-01 14:22 | 43.80814 | 11.09795 | 4239 ft | 222 kts | 279° |
| 2026-05-01 14:22 | 43.80949 | 11.07577 | 4745 ft | 238 kts | 279° |
| 2026-05-01 14:22 | 43.81096 | 11.05274 | 5621 ft | 242 kts | 279° |
| 2026-05-01 14:22 | 43.81315 | 11.02964 | 6547 ft | 242 kts | 291° |
| 2026-05-01 14:23 | 43.82139 | 11.00981 | 7341 ft | 237 kts | 320° |
| 2026-05-01 14:23 | 43.83472 | 10.99729 | 8174 ft | 230 kts | 345° |
| 2026-05-01 14:23 | 43.85004 | 10.99357 | 9079 ft | 222 kts | 6° |
| 2026-05-01 14:23 | 43.86545 | 10.99428 | 10054 ft | 221 kts | 7° |
| 2026-05-01 14:24 | 43.88093 | 10.99526 | 10891 ft | 224 kts | 8° |
| 2026-05-01 14:24 | 43.89651 | 10.99625 | 11748 ft | 225 kts | 8° |
| 2026-05-01 14:24 | 43.91220 | 10.99719 | 12627 ft | 226 kts | 8° |
| 2026-05-01 14:24 | 43.92803 | 10.99808 | 13442 ft | 232 kts | 7° |
| 2026-05-01 14:25 | 43.94502 | 10.99908 | 13826 ft | 256 kts | 7° |
| 2026-05-01 14:25 | 43.96353 | 11.00026 | 14229 ft | 277 kts | 7° |
| 2026-05-01 14:25 | 43.98355 | 11.00159 | 14534 ft | 299 kts | 7° |
| 2026-05-01 14:25 | 44.00512 | 11.00160 | 14813 ft | 324 kts | 355° |
| 2026-05-01 14:26 | 44.02644 | 10.98922 | 15343 ft | 347 kts | 329° |
| 2026-05-01 14:26 | 44.05527 | 10.93244 | 16832 ft | 367 kts | 303° |
| 2026-05-01 14:26 | 44.06739 | 10.90120 | 17652 ft | 369 kts | 303° |
| 2026-05-01 14:27 | 44.07962 | 10.86948 | 18395 ft | 373 kts | 303° |
| 2026-05-01 14:27 | 44.09193 | 10.83755 | 19094 ft | 377 kts | 303° |
| 2026-05-01 14:27 | 44.10439 | 10.80527 | 19751 ft | 379 kts | 303° |
| 2026-05-01 14:28 | 44.12932 | 10.74074 | 21105 ft | 383 kts | 303° |
| 2026-05-01 14:28 | 44.14199 | 10.70793 | 21777 ft | 385 kts | 303° |
| 2026-05-01 14:28 | 44.15463 | 10.67493 | 22433 ft | 388 kts | 301° |
| 2026-05-01 14:28 | 44.16451 | 10.63952 | 23101 ft | 397 kts | 290° |
| 2026-05-01 14:29 | 44.16949 | 10.60135 | 23783 ft | 406 kts | 279° |
| 2026-05-01 14:29 | 44.16971 | 10.56167 | 24347 ft | 412 kts | 273° |
| 2026-05-01 14:30 | 44.16730 | 10.44059 | 25854 ft | 421 kts | 273° |
| 2026-05-01 14:30 | 44.16649 | 10.39967 | 26333 ft | 424 kts | 273° |
| 2026-05-01 14:30 | 44.16583 | 10.35838 | 26796 ft | 426 kts | 275° |
| 2026-05-01 14:31 | 44.17122 | 10.27623 | 27736 ft | 429 kts | 281° |
| 2026-05-01 14:31 | 44.17433 | 10.23477 | 28182 ft | 432 kts | 281° |
| 2026-05-01 14:31 | 44.17740 | 10.19307 | 28653 ft | 435 kts | 280° |
| 2026-05-01 14:31 | 44.18050 | 10.15092 | 29127 ft | 437 kts | 280° |
| 2026-05-01 14:32 | 44.18358 | 10.10866 | 29567 ft | 440 kts | 280° |
| 2026-05-01 14:32 | 44.18562 | 10.08051 | 29866 ft | 442 kts | 280° |
| 2026-05-01 14:32 | 44.18974 | 10.02333 | 30423 ft | 445 kts | 280° |
| 2026-05-01 14:32 | 44.19281 | 9.98029 | 30796 ft | 447 kts | 279° |
| 2026-05-01 14:33 | 44.19587 | 9.93707 | 31186 ft | 449 kts | 279° |
| 2026-05-01 14:33 | 44.19892 | 9.89366 | 31575 ft | 451 kts | 279° |
| 2026-05-01 14:33 | 44.20197 | 9.85010 | 31945 ft | 452 kts | 279° |
| 2026-05-01 14:33 | 44.20498 | 9.80710 | 32415 ft | 451 kts | 279° |
| 2026-05-01 14:34 | 44.20799 | 9.76374 | 32947 ft | 448 kts | 279° |
| 2026-05-01 14:34 | 44.21097 | 9.72059 | 33486 ft | 446 kts | 279° |
| 2026-05-01 14:34 | 44.21394 | 9.67769 | 34013 ft | 444 kts | 278° |
| 2026-05-01 14:34 | 44.21687 | 9.63495 | 34504 ft | 442 kts | 278° |
| 2026-05-01 14:35 | 44.21976 | 9.59239 | 34976 ft | 440 kts | 278° |
| 2026-05-01 14:35 | 44.22261 | 9.55005 | 35454 ft | 438 kts | 278° |
| 2026-05-01 14:35 | 44.22543 | 9.50791 | 35924 ft | 436 kts | 279° |
| 2026-05-01 14:35 | 44.22823 | 9.46600 | 36366 ft | 434 kts | 279° |
| 2026-05-01 14:36 | 44.23102 | 9.42421 | 36786 ft | 432 kts | 279° |
| 2026-05-01 14:36 | 44.23380 | 9.38256 | 37169 ft | 431 kts | 279° |
| 2026-05-01 14:36 | 44.23657 | 9.34094 | 37285 ft | 430 kts | 279° |
| 2026-05-01 14:37 | 44.24195 | 9.25857 | 37299 ft | 426 kts | 279° |
| 2026-05-01 14:37 | 44.24721 | 9.17644 | 37295 ft | 425 kts | 278° |
| 2026-05-01 14:38 | 44.25153 | 9.10820 | 37290 ft | 425 kts | 278° |
| 2026-05-01 14:38 | 44.25676 | 9.02620 | 37285 ft | 425 kts | 278° |
| 2026-05-01 14:39 | 44.26189 | 8.94413 | 37279 ft | 425 kts | 278° |
| 2026-05-01 14:39 | 44.26695 | 8.86206 | 37276 ft | 424 kts | 278° |
| 2026-05-01 14:40 | 44.27200 | 8.78002 | 37277 ft | 424 kts | 278° |
| 2026-05-01 14:40 | 44.27694 | 8.69799 | 37278 ft | 424 kts | 278° |
| 2026-05-01 14:41 | 44.28187 | 8.61597 | 37287 ft | 424 kts | 278° |
| 2026-05-01 14:41 | 44.28676 | 8.53399 | 37295 ft | 424 kts | 277° |
| 2026-05-01 14:42 | 44.29144 | 8.45259 | 37312 ft | 423 kts | 277° |
| 2026-05-01 14:42 | 44.29611 | 8.37062 | 37318 ft | 423 kts | 277° |
| 2026-05-01 14:43 | 44.29887 | 8.28860 | 37319 ft | 425 kts | 269° |
| 2026-05-01 14:43 | 44.29435 | 8.20627 | 37310 ft | 425 kts | 268° |
| 2026-05-01 14:44 | 44.28984 | 8.12398 | 37321 ft | 425 kts | 268° |
| 2026-05-01 14:44 | 44.28298 | 8.00077 | 37326 ft | 424 kts | 268° |
| 2026-05-01 14:45 | 44.27596 | 7.87787 | 37335 ft | 423 kts | 268° |
| 2026-05-01 14:46 | 44.26276 | 7.79767 | 37341 ft | 429 kts | 249° |
| 2026-05-01 14:46 | 44.22912 | 7.72863 | 37350 ft | 437 kts | 227° |
| 2026-05-01 14:46 | 44.20646 | 7.70013 | 37342 ft | 438 kts | 224° |
| 2026-05-01 14:47 | 44.16067 | 7.64400 | 37330 ft | 438 kts | 224° |
| 2026-05-01 14:48 | 44.09950 | 7.55132 | 37327 ft | 436 kts | 232° |
| 2026-05-01 14:48 | 44.03987 | 7.45596 | 37322 ft | 435 kts | 232° |
| 2026-05-01 14:49 | 43.98269 | 7.35986 | 37306 ft | 432 kts | 233° |
| 2026-05-01 14:50 | 43.90150 | 7.23616 | 37286 ft | 433 kts | 231° |
| 2026-05-01 14:51 | 43.84166 | 7.14226 | 37303 ft | 433 kts | 232° |
| 2026-05-01 14:52 | 43.78232 | 7.04809 | 37305 ft | 432 kts | 232° |
| 2026-05-01 14:53 | 43.72472 | 6.95251 | 37307 ft | 428 kts | 242° |
| 2026-05-01 14:53 | 43.70015 | 6.87913 | 37305 ft | 423 kts | 251° |
| 2026-05-01 14:54 | 43.67806 | 6.80379 | 37304 ft | 423 kts | 251° |
| 2026-05-01 14:54 | 43.65582 | 6.72851 | 37307 ft | 423 kts | 250° |
| 2026-05-01 14:55 | 43.63358 | 6.65336 | 37307 ft | 423 kts | 250° |
| 2026-05-01 14:55 | 43.61129 | 6.57829 | 37308 ft | 422 kts | 250° |
| 2026-05-01 14:56 | 43.58894 | 6.50340 | 37306 ft | 422 kts | 250° |
| 2026-05-01 14:56 | 43.56659 | 6.42852 | 37304 ft | 422 kts | 250° |
| 2026-05-01 14:57 | 43.54415 | 6.35376 | 37302 ft | 422 kts | 250° |
| 2026-05-01 14:57 | 43.51042 | 6.24176 | 37303 ft | 421 kts | 250° |
| 2026-05-01 14:58 | 43.48808 | 6.16777 | 37302 ft | 421 kts | 250° |
| 2026-05-01 14:58 | 43.46556 | 6.09341 | 37303 ft | 421 kts | 249° |
| 2026-05-01 14:59 | 43.44297 | 6.01911 | 37297 ft | 420 kts | 250° |
| 2026-05-01 14:59 | 43.42043 | 5.94493 | 37289 ft | 420 kts | 249° |
| 2026-05-01 15:00 | 43.38648 | 5.83376 | 37290 ft | 420 kts | 249° |
| 2026-05-01 15:01 | 43.36389 | 5.75983 | 37282 ft | 420 kts | 249° |
| 2026-05-01 15:01 | 43.34112 | 5.68595 | 37279 ft | 419 kts | 249° |
| 2026-05-01 15:02 | 43.31827 | 5.61227 | 37282 ft | 419 kts | 248° |
| 2026-05-01 15:02 | 43.29547 | 5.53857 | 37274 ft | 419 kts | 248° |
| 2026-05-01 15:03 | 43.27272 | 5.46496 | 37278 ft | 419 kts | 248° |
| 2026-05-01 15:03 | 43.24994 | 5.39154 | 37281 ft | 418 kts | 248° |
| 2026-05-01 15:04 | 43.22722 | 5.31872 | 37277 ft | 418 kts | 248° |
| 2026-05-01 15:04 | 43.20433 | 5.24558 | 37279 ft | 417 kts | 248° |
| 2026-05-01 15:05 | 43.18136 | 5.17257 | 37282 ft | 417 kts | 248° |
| 2026-05-01 15:05 | 43.15837 | 5.09971 | 37294 ft | 416 kts | 248° |
| 2026-05-01 15:06 | 43.13548 | 5.02698 | 37297 ft | 416 kts | 248° |
| 2026-05-01 15:06 | 43.11256 | 4.95424 | 37301 ft | 415 kts | 247° |
| 2026-05-01 15:07 | 43.08960 | 4.88177 | 37298 ft | 415 kts | 247° |
| 2026-05-01 15:07 | 43.06612 | 4.80956 | 37298 ft | 415 kts | 243° |
| 2026-05-01 15:08 | 43.03129 | 4.74664 | 37293 ft | 418 kts | 224° |
| 2026-05-01 15:08 | 42.98769 | 4.69397 | 37288 ft | 418 kts | 223° |
| 2026-05-01 15:09 | 42.94410 | 4.64143 | 37287 ft | 418 kts | 223° |
| 2026-05-01 15:09 | 42.90075 | 4.58923 | 37286 ft | 418 kts | 223° |
| 2026-05-01 15:10 | 42.85710 | 4.53672 | 37281 ft | 418 kts | 223° |
| 2026-05-01 15:10 | 42.79159 | 4.45801 | 37283 ft | 418 kts | 223° |
| 2026-05-01 15:11 | 42.72603 | 4.37949 | 37283 ft | 418 kts | 223° |
| 2026-05-01 15:12 | 42.68234 | 4.32732 | 37282 ft | 418 kts | 223° |
| 2026-05-01 15:12 | 42.61672 | 4.24910 | 37280 ft | 418 kts | 223° |
| 2026-05-01 15:14 | 42.50721 | 4.11937 | 37276 ft | 418 kts | 223° |
| 2026-05-01 15:14 | 42.44180 | 4.04204 | 37274 ft | 418 kts | 223° |
| 2026-05-01 15:15 | 42.35386 | 3.93841 | 36395 ft | 421 kts | 223° |
| 2026-05-01 15:16 | 42.30970 | 3.88636 | 35058 ft | 421 kts | 223° |
| 2026-05-01 15:16 | 42.26544 | 3.83454 | 33657 ft | 421 kts | 223° |
| 2026-05-01 15:17 | 42.22096 | 3.78265 | 31966 ft | 425 kts | 223° |
| 2026-05-01 15:18 | 42.15447 | 3.70518 | 30020 ft | 417 kts | 223° |
| 2026-05-01 15:18 | 42.13255 | 3.67970 | 29348 ft | 415 kts | 223° |
| 2026-05-01 15:19 | 42.07631 | 3.59448 | 27445 ft | 403 kts | 243° |
| 2026-05-01 15:19 | 42.05340 | 3.52624 | 26234 ft | 398 kts | 246° |
| 2026-05-01 15:19 | 42.04222 | 3.49227 | 25671 ft | 396 kts | 246° |
| 2026-05-01 15:20 | 42.01992 | 3.42508 | 24597 ft | 392 kts | 246° |
| 2026-05-01 15:20 | 42.00883 | 3.39170 | 24083 ft | 390 kts | 246° |
| 2026-05-01 15:20 | 41.99774 | 3.35842 | 23539 ft | 390 kts | 246° |
| 2026-05-01 15:21 | 41.98667 | 3.32527 | 22994 ft | 388 kts | 246° |
| 2026-05-01 15:21 | 41.97565 | 3.29232 | 22498 ft | 385 kts | 246° |
| 2026-05-01 15:21 | 41.96469 | 3.25956 | 22216 ft | 384 kts | 246° |
| 2026-05-01 15:21 | 41.95393 | 3.22729 | 21955 ft | 383 kts | 246° |
| 2026-05-01 15:22 | 41.93909 | 3.15900 | 21439 ft | 380 kts | 257° |
| 2026-05-01 15:22 | 41.93311 | 3.12451 | 21184 ft | 379 kts | 256° |
| 2026-05-01 15:22 | 41.92716 | 3.09024 | 20779 ft | 375 kts | 256° |
| 2026-05-01 15:23 | 41.92127 | 3.05625 | 20314 ft | 372 kts | 256° |
| 2026-05-01 15:23 | 41.91536 | 3.02253 | 19860 ft | 370 kts | 256° |
| 2026-05-01 15:23 | 41.90944 | 2.98903 | 19404 ft | 367 kts | 256° |
| 2026-05-01 15:23 | 41.90357 | 2.95585 | 18955 ft | 364 kts | 256° |
| 2026-05-01 15:24 | 41.89777 | 2.92285 | 18506 ft | 362 kts | 256° |
| 2026-05-01 15:24 | 41.89202 | 2.89013 | 17997 ft | 360 kts | 256° |
| 2026-05-01 15:24 | 41.88626 | 2.85741 | 17663 ft | 359 kts | 256° |
| 2026-05-01 15:24 | 41.88051 | 2.82484 | 17402 ft | 359 kts | 256° |
| 2026-05-01 15:25 | 41.87473 | 2.79227 | 17142 ft | 358 kts | 256° |
| 2026-05-01 15:25 | 41.86892 | 2.75982 | 16883 ft | 357 kts | 256° |
| 2026-05-01 15:25 | 41.86314 | 2.72747 | 16634 ft | 356 kts | 256° |
| 2026-05-01 15:25 | 41.85741 | 2.69522 | 16379 ft | 355 kts | 256° |
| 2026-05-01 15:26 | 41.85170 | 2.66304 | 16102 ft | 354 kts | 256° |
| 2026-05-01 15:26 | 41.84603 | 2.63104 | 15808 ft | 352 kts | 255° |
| 2026-05-01 15:26 | 41.84034 | 2.59913 | 15506 ft | 351 kts | 255° |
| 2026-05-01 15:26 | 41.83656 | 2.57801 | 15316 ft | 350 kts | 255° |
| 2026-05-01 15:27 | 41.83087 | 2.54632 | 15032 ft | 349 kts | 255° |
| 2026-05-01 15:27 | 41.82518 | 2.51478 | 14740 ft | 348 kts | 255° |
| 2026-05-01 15:27 | 41.81949 | 2.48326 | 14458 ft | 347 kts | 255° |
| 2026-05-01 15:28 | 41.80637 | 2.41056 | 13752 ft | 344 kts | 255° |
| 2026-05-01 15:28 | 41.80113 | 2.38148 | 13383 ft | 342 kts | 255° |
| 2026-05-01 15:28 | 41.79552 | 2.35057 | 12986 ft | 340 kts | 255° |
| 2026-05-01 15:29 | 41.78612 | 2.29922 | 12340 ft | 337 kts | 255° |
| 2026-05-01 15:29 | 41.78056 | 2.26877 | 11963 ft | 335 kts | 254° |
| 2026-05-01 15:29 | 41.75899 | 2.21572 | 11220 ft | 326 kts | 223° |
| 2026-05-01 15:30 | 41.72112 | 2.18618 | 10716 ft | 304 kts | 194° |
| 2026-05-01 15:31 | 41.64441 | 2.15692 | 9760 ft | 279 kts | 193° |
| 2026-05-01 15:31 | 41.60733 | 2.14282 | 9232 ft | 279 kts | 193° |
| 2026-05-01 15:32 | 41.57002 | 2.12872 | 8725 ft | 278 kts | 193° |
| 2026-05-01 15:32 | 41.53318 | 2.11311 | 8219 ft | 280 kts | 204° |
| 2026-05-01 15:33 | 41.49483 | 2.05475 | 7728 ft | 286 kts | 237° |
| 2026-05-01 15:34 | 41.46373 | 1.98703 | 7359 ft | 285 kts | 237° |